Terminal Aerodrome Forecast
Issued by NWS

Current Version | Previous Version | Graphics & Text | Print | Product List | Glossary On
Versions: 1 2 3 4 5 6 7 8 9 10 11 12 13 14 15 16 17 18 19 20 21
000
FTUS41 KILN 301200 AAA
TAFLCK
TAF AMD
KLCK 301239Z 3013/3112 18005KT P6SM VCSH FEW050 BKN150
      TEMPO 3013/3014 VRB05G15KT 5SM SHRA BKN035
     FM301500 21012KT P6SM SCT050
     FM301900 21012G20KT P6SM VCTS BKN050CB
     FM302200 20012G20KT P6SM BKN050
     FM310100 19008KT P6SM SCT050
     FM310900 18011KT P6SM VCSH BKN050=

USA.gov is the U.S. government's official web portal to all federal, state and local government web resources and services.